sensor_id;sensor_type;location;lat;lon;timestamp;pressure;altitude;pressure_sealevel;temperature;humidity
68628;BME280;55611;48.602;9.490;2023-01-15T00:01:57;95770;;;14.2;57
68628;BME280;55611;48.602;9.490;2023-01-15T00:04:28;95780;;;14.1;57
68628;BME280;55611;48.602;9.490;2023-01-15T00:06:58;95760;;;14.1;57
68628;BME280;55611;48.602;9.490;2023-01-15T00:09:29;95770;;;14;57.5
68628;BME280;55611;48.602;9.490;2023-01-15T00:11:59;95760;;;14.1;57.5
68628;BME280;55611;48.602;9.490;2023-01-15T00:14:30;95750;;;14.1;57.5
68628;BME280;55611;48.602;9.490;2023-01-15T00:17:00;95770;;;14.1;57.5
68628;BME280;55611;48.602;9.490;2023-01-15T00:19:31;95740;;;14.2;57.5
68628;BME280;55611;48.602;9.490;2023-01-15T00:22:02;95760;;;14.2;57
68628;BME280;55611;48.602;9.490;2023-01-15T00:24:32;95740;;;14.1;57
68628;BME280;55611;48.602;9.490;2023-01-15T00:27:03;95720;;;14;57.5
68628;BME280;55611;48.602;9.490;2023-01-15T00:29:33;95730;;;14;57.5
68628;BME280;55611;48.602;9.490;2023-01-15T00:32:05;95720;;;14.1;57
68628;BME280;55611;48.602;9.490;2023-01-15T00:34:34;95720;;;14.1;57
68628;BME280;55611;48.602;9.490;2023-01-15T00:37:05;95710;;;14.1;57
68628;BME280;55611;48.602;9.490;2023-01-15T00:39:35;95710;;;14.2;57
68628;BME280;55611;48.602;9.490;2023-01-15T00:42:06;95690;;;14.2;57
68628;BME280;55611;48.602;9.490;2023-01-15T00:44:36;95710;;;14.2;57
68628;BME280;55611;48.602;9.490;2023-01-15T00:47:07;95700;;;14.3;57
68628;BME280;55611;48.602;9.490;2023-01-15T00:49:37;95710;;;14.3;57.5
68628;BME280;55611;48.602;9.490;2023-01-15T00:52:08;95690;;;14.2;57.5
68628;BME280;55611;48.602;9.490;2023-01-15T00:54:38;95700;;;14.3;57.5
68628;BME280;55611;48.602;9.490;2023-01-15T00:57:09;95700;;;14.3;57
68628;BME280;55611;48.602;9.490;2023-01-15T00:59:39;95710;;;14.3;57
68628;BME280;55611;48.602;9.490;2023-01-15T01:02:10;95690;;;14.3;57
68628;BME280;55611;48.602;9.490;2023-01-15T01:04:40;95700;;;14.3;57
68628;BME280;55611;48.602;9.490;2023-01-15T01:07:11;95690;;;14.3;57
68628;BME280;55611;48.602;9.490;2023-01-15T01:09:41;95680;;;14.3;57
68628;BME280;55611;48.602;9.490;2023-01-15T01:12:12;95680;;;14.3;57
68628;BME280;55611;48.602;9.490;2023-01-15T01:14:42;95680;;;14.2;57
68628;BME280;55611;48.602;9.490;2023-01-15T01:17:13;95680;;;14.2;57
68628;BME280;55611;48.602;9.490;2023-01-15T01:19:43;95670;;;14.1;57
68628;BME280;55611;48.602;9.490;2023-01-15T01:22:14;95670;;;14;57
68628;BME280;55611;48.602;9.490;2023-01-15T01:24:44;95670;;;13.9;57
68628;BME280;55611;48.602;9.490;2023-01-15T01:27:15;95680;;;13.8;57
68628;BME280;55611;48.602;9.490;2023-01-15T01:29:46;95680;;;13.7;57
68628;BME280;55611;48.602;9.490;2023-01-15T01:32:16;95650;;;13.7;57
68628;BME280;55611;48.602;9.490;2023-01-15T01:34:46;95660;;;13.6;57
68628;BME280;55611;48.602;9.490;2023-01-15T01:37:17;95650;;;13.7;57
68628;BME280;55611;48.602;9.490;2023-01-15T01:39:47;95640;;;13.7;57
68628;BME280;55611;48.602;9.490;2023-01-15T01:42:18;95640;;;13.6;57
68628;BME280;55611;48.602;9.490;2023-01-15T01:47:20;95650;;;13.5;57
68628;BME280;55611;48.602;9.490;2023-01-15T01:49:52;95660;;;13.5;57
68628;BME280;55611;48.602;9.490;2023-01-15T01:52:22;95640;;;13.6;57
68628;BME280;55611;48.602;9.490;2023-01-15T01:54:51;95640;;;13.5;57
68628;BME280;55611;48.602;9.490;2023-01-15T01:57:21;95650;;;13.6;57
68628;BME280;55611;48.602;9.490;2023-01-15T01:59:52;95630;;;13.7;57
68628;BME280;55611;48.602;9.490;2023-01-15T02:02:22;95630;;;13.7;57
68628;BME280;55611;48.602;9.490;2023-01-15T02:04:53;95640;;;13.7;57
68628;BME280;55611;48.602;9.490;2023-01-15T02:07:24;95630;;;13.8;57
68628;BME280;55611;48.602;9.490;2023-01-15T02:09:54;95630;;;13.8;57
68628;BME280;55611;48.602;9.490;2023-01-15T02:12:27;95620;;;13.8;57.5
68628;BME280;55611;48.602;9.490;2023-01-15T02:14:58;95620;;;13.9;57
68628;BME280;55611;48.602;9.490;2023-01-15T02:22:30;95620;;;14;57.5
68628;BME280;55611;48.602;9.490;2023-01-15T02:27:27;95610;;;14;57
68628;BME280;55611;48.602;9.490;2023-01-15T02:30:01;95610;;;14;57.5
68628;BME280;55611;48.602;9.490;2023-01-15T02:32:31;95610;;;14;57.5
68628;BME280;55611;48.602;9.490;2023-01-15T02:35:02;95590;;;14.1;57.5
68628;BME280;55611;48.602;9.490;2023-01-15T02:37:29;95580;;;14.2;57
68628;BME280;55611;48.602;9.490;2023-01-15T02:40:00;95590;;;14.2;57
68628;BME280;55611;48.602;9.490;2023-01-15T02:42:30;95590;;;14.3;57
68628;BME280;55611;48.602;9.490;2023-01-15T02:45:01;95600;;;14.4;57
68628;BME280;55611;48.602;9.490;2023-01-15T02:47:32;95590;;;14.4;57
68628;BME280;55611;48.602;9.490;2023-01-15T02:50:03;95590;;;14.4;57
68628;BME280;55611;48.602;9.490;2023-01-15T02:52:36;95590;;;14.3;57
68628;BME280;55611;48.602;9.490;2023-01-15T02:55:05;95600;;;14.3;57
68628;BME280;55611;48.602;9.490;2023-01-15T02:57:34;95600;;;14.3;57
68628;BME280;55611;48.602;9.490;2023-01-15T03:00:07;95590;;;14.3;57
68628;BME280;55611;48.602;9.490;2023-01-15T03:02:38;95580;;;14.4;57
68628;BME280;55611;48.602;9.490;2023-01-15T03:05:07;95600;;;14.4;57
68628;BME280;55611;48.602;9.490;2023-01-15T03:07:36;95580;;;14.4;57
68628;BME280;55611;48.602;9.490;2023-01-15T03:10:06;95590;;;14.3;57
68628;BME280;55611;48.602;9.490;2023-01-15T03:12:42;95570;;;14.3;57
68628;BME280;55611;48.602;9.490;2023-01-15T03:15:08;95580;;;14.3;57
68628;BME280;55611;48.602;9.490;2023-01-15T03:17:38;95570;;;14.4;57
68628;BME280;55611;48.602;9.490;2023-01-15T03:20:11;95570;;;14.4;57
68628;BME280;55611;48.602;9.490;2023-01-15T03:22:39;95570;;;14.4;57
68628;BME280;55611;48.602;9.490;2023-01-15T03:25:11;95560;;;14.4;57
68628;BME280;55611;48.602;9.490;2023-01-15T03:27:40;95570;;;14.4;57
68628;BME280;55611;48.602;9.490;2023-01-15T03:30:11;95560;;;14.4;57
68628;BME280;55611;48.602;9.490;2023-01-15T03:32:41;95570;;;14.3;57
68628;BME280;55611;48.602;9.490;2023-01-15T03:36:14;95550;;;14.3;57
68628;BME280;55611;48.602;9.490;2023-01-15T03:37:42;95560;;;14.3;57
68628;BME280;55611;48.602;9.490;2023-01-15T03:40:12;95570;;;14.2;57
68628;BME280;55611;48.602;9.490;2023-01-15T03:42:46;95570;;;14.2;57
68628;BME280;55611;48.602;9.490;2023-01-15T03:45:19;95580;;;14.2;57
68628;BME280;55611;48.602;9.490;2023-01-15T03:47:55;95570;;;14.2;57
68628;BME280;55611;48.602;9.490;2023-01-15T03:50:47;95570;;;14.2;57
68628;BME280;55611;48.602;9.490;2023-01-15T03:52:47;95570;;;14.1;57.5
68628;BME280;55611;48.602;9.490;2023-01-15T03:55:18;95580;;;14.1;57.5
68628;BME280;55611;48.602;9.490;2023-01-15T03:57:50;95580;;;14.1;57.5
68628;BME280;55611;48.602;9.490;2023-01-15T04:00:20;95560;;;14.1;57.5
68628;BME280;55611;48.602;9.490;2023-01-15T04:02:47;95570;;;14.2;57.5
68628;BME280;55611;48.602;9.490;2023-01-15T04:05:17;95550;;;14.2;57.5
68628;BME280;55611;48.602;9.490;2023-01-15T04:07:48;95540;;;14.2;57
68628;BME280;55611;48.602;9.490;2023-01-15T04:10:19;95550;;;14.2;57
68628;BME280;55611;48.602;9.490;2023-01-15T04:12:49;95560;;;14.2;57
68628;BME280;55611;48.602;9.490;2023-01-15T04:15:19;95550;;;14.1;57
68628;BME280;55611;48.602;9.490;2023-01-15T04:17:50;95560;;;14;57
68628;BME280;55611;48.602;9.490;2023-01-15T04:20:20;95550;;;14;57
68628;BME280;55611;48.602;9.490;2023-01-15T04:22:51;95560;;;14.1;57
68628;BME280;55611;48.602;9.490;2023-01-15T04:25:21;95540;;;14.1;57
68628;BME280;55611;48.602;9.490;2023-01-15T04:27:53;95550;;;14;57
68628;BME280;55611;48.602;9.490;2023-01-15T04:30:23;95540;;;14.1;57.5
68628;BME280;55611;48.602;9.490;2023-01-15T04:32:53;95530;;;14.2;57.5
68628;BME280;55611;48.602;9.490;2023-01-15T04:35:24;95520;;;14.3;57.5
68628;BME280;55611;48.602;9.490;2023-01-15T04:37:55;95510;;;14.3;57.5
68628;BME280;55611;48.602;9.490;2023-01-15T04:40:25;95510;;;14.3;57.5
68628;BME280;55611;48.602;9.490;2023-01-15T04:42:55;95480;;;14.3;57.5
68628;BME280;55611;48.602;9.490;2023-01-15T04:47:56;95490;;;14.4;57.5
68628;BME280;55611;48.602;9.490;2023-01-15T04:50:27;95510;;;14.4;57.5
68628;BME280;55611;48.602;9.490;2023-01-15T04:52:57;95500;;;14.5;57.5
68628;BME280;55611;48.602;9.490;2023-01-15T04:55:28;95490;;;14.5;57.5
68628;BME280;55611;48.602;9.490;2023-01-15T04:57:58;95510;;;14.7;57.5
68628;BME280;55611;48.602;9.490;2023-01-15T05:00:29;95490;;;14.8;57.5
68628;BME280;55611;48.602;9.490;2023-01-15T05:05:31;95460;;;14.8;57.5
68628;BME280;55611;48.602;9.490;2023-01-15T05:08:00;95480;;;15;57.5
68628;BME280;55611;48.602;9.490;2023-01-15T05:15:43;95490;;;15.2;57.5
68628;BME280;55611;48.602;9.490;2023-01-15T05:18:13;95490;;;15.2;57.5
68628;BME280;55611;48.602;9.490;2023-01-15T05:23:02;95450;;;15.3;57.5
68628;BME280;55611;48.602;9.490;2023-01-15T05:25:36;95510;;;15.4;57.5
68628;BME280;55611;48.602;9.490;2023-01-15T05:28:03;95460;;;15.3;57.5
68628;BME280;55611;48.602;9.490;2023-01-15T05:30:34;95480;;;15.3;57.5
68628;BME280;55611;48.602;9.490;2023-01-15T05:33:04;95460;;;15.4;57.5
68628;BME280;55611;48.602;9.490;2023-01-15T05:35:35;95460;;;15.5;57.5
68628;BME280;55611;48.602;9.490;2023-01-15T05:38:05;95470;;;15.5;57.5
68628;BME280;55611;48.602;9.490;2023-01-15T05:40:36;95500;;;15.4;57.5
68628;BME280;55611;48.602;9.490;2023-01-15T05:43:06;95480;;;15.4;57.5
68628;BME280;55611;48.602;9.490;2023-01-15T05:45:37;95500;;;15.4;57.5
68628;BME280;55611;48.602;9.490;2023-01-15T05:48:07;95510;;;15.5;57.5
68628;BME280;55611;48.602;9.490;2023-01-15T05:50:38;95480;;;15.5;57.5
68628;BME280;55611;48.602;9.490;2023-01-15T05:53:08;95460;;;15.5;57.5
68628;BME280;55611;48.602;9.490;2023-01-15T05:55:39;95470;;;15.3;57.5
68628;BME280;55611;48.602;9.490;2023-01-15T05:58:10;95480;;;15.4;57.5
68628;BME280;55611;48.602;9.490;2023-01-15T06:00:40;95500;;;15.4;57.5
68628;BME280;55611;48.602;9.490;2023-01-15T06:03:11;95490;;;15.4;57.5
68628;BME280;55611;48.602;9.490;2023-01-15T06:05:41;95510;;;15.5;57.5
68628;BME280;55611;48.602;9.490;2023-01-15T06:08:12;95500;;;15.4;57.5
68628;BME280;55611;48.602;9.490;2023-01-15T06:10:43;95530;;;15.3;57
68628;BME280;55611;48.602;9.490;2023-01-15T06:13:13;95520;;;15.2;57
68628;BME280;55611;48.602;9.490;2023-01-15T06:15:43;95490;;;15.1;57
68628;BME280;55611;48.602;9.490;2023-01-15T06:18:14;95500;;;15.1;57
68628;BME280;55611;48.602;9.490;2023-01-15T06:23:15;95560;;;14.6;57
68628;BME280;55611;48.602;9.490;2023-01-15T06:25:45;95590;;;12.7;57.5
68628;BME280;55611;48.602;9.490;2023-01-15T06:28:16;95600;;;11.6;57.5
68628;BME280;55611;48.602;9.490;2023-01-15T06:30:46;95610;;;10.9;58
68628;BME280;55611;48.602;9.490;2023-01-15T06:33:17;95610;;;10.5;58
68628;BME280;55611;48.602;9.490;2023-01-15T06:35:47;95640;;;10.4;58
68628;BME280;55611;48.602;9.490;2023-01-15T06:38:18;95620;;;10.5;58
68628;BME280;55611;48.602;9.490;2023-01-15T06:40:48;95660;;;10.5;58
68628;BME280;55611;48.602;9.490;2023-01-15T06:43:19;95640;;;10.3;58
68628;BME280;55611;48.602;9.490;2023-01-15T06:45:49;95650;;;10.2;58
68628;BME280;55611;48.602;9.490;2023-01-15T06:48:20;95660;;;10.2;58
68628;BME280;55611;48.602;9.490;2023-01-15T06:50:50;95670;;;10.2;58
68628;BME280;55611;48.602;9.490;2023-01-15T06:53:21;95670;;;10.2;58
68628;BME280;55611;48.602;9.490;2023-01-15T06:55:51;95680;;;10.1;58
68628;BME280;55611;48.602;9.490;2023-01-15T06:58:22;95690;;;10.1;58
68628;BME280;55611;48.602;9.490;2023-01-15T07:00:52;95690;;;10.1;58.5
68628;BME280;55611;48.602;9.490;2023-01-15T07:03:23;95700;;;10.1;58.5
68628;BME280;55611;48.602;9.490;2023-01-15T07:05:53;95700;;;9.8;58.5
68628;BME280;55611;48.602;9.490;2023-01-15T07:08:24;95700;;;9.8;58.5
68628;BME280;55611;48.602;9.490;2023-01-15T07:10:54;95710;;;9.8;58.5
68628;BME280;55611;48.602;9.490;2023-01-15T07:13:25;95720;;;9.8;58.5
68628;BME280;55611;48.602;9.490;2023-01-15T07:15:57;95730;;;9.8;58.5
68628;BME280;55611;48.602;9.490;2023-01-15T07:18:27;95720;;;9.7;58.5
68628;BME280;55611;48.602;9.490;2023-01-15T07:20:57;95730;;;9.6;58.5
68628;BME280;55611;48.602;9.490;2023-01-15T07:23:27;95750;;;9.8;58.5
68628;BME280;55611;48.602;9.490;2023-01-15T07:25:58;95760;;;9.6;58.5
68628;BME280;55611;48.602;9.490;2023-01-15T07:28:28;95760;;;9.6;58.5
68628;BME280;55611;48.602;9.490;2023-01-15T07:30:59;95770;;;9.5;58.5
68628;BME280;55611;48.602;9.490;2023-01-15T07:33:32;95780;;;9.5;58.5
68628;BME280;55611;48.602;9.490;2023-01-15T07:36:01;95780;;;9.4;59
68628;BME280;55611;48.602;9.490;2023-01-15T07:38:30;95780;;;9.2;59
68628;BME280;55611;48.602;9.490;2023-01-15T07:41:01;95800;;;9.1;59
68628;BME280;55611;48.602;9.490;2023-01-15T07:43:31;95810;;;9.2;59
68628;BME280;55611;48.602;9.490;2023-01-15T07:46:02;95810;;;9;59
68628;BME280;55611;48.602;9.490;2023-01-15T07:48:32;95810;;;9.1;59
68628;BME280;55611;48.602;9.490;2023-01-15T07:51:03;95820;;;9;59
68628;BME280;55611;48.602;9.490;2023-01-15T07:53:33;95830;;;9;59
68628;BME280;55611;48.602;9.490;2023-01-15T07:56:04;95830;;;8.9;59
68628;BME280;55611;48.602;9.490;2023-01-15T07:58:34;95850;;;8.8;59
68628;BME280;55611;48.602;9.490;2023-01-15T08:01:05;95860;;;8.7;59.5
68628;BME280;55611;48.602;9.490;2023-01-15T08:03:35;95840;;;8.4;59.5
68628;BME280;55611;48.602;9.490;2023-01-15T08:06:06;95870;;;8.4;59.5
68628;BME280;55611;48.602;9.490;2023-01-15T08:08:36;95870;;;8.5;59.5
68628;BME280;55611;48.602;9.490;2023-01-15T08:11:07;95870;;;8.3;59.5
68628;BME280;55611;48.602;9.490;2023-01-15T08:13:37;95860;;;8.1;59.5
68628;BME280;55611;48.602;9.490;2023-01-15T08:16:08;95880;;;8;59.5
68628;BME280;55611;48.602;9.490;2023-01-15T08:18:38;95880;;;8;59.5
68628;BME280;55611;48.602;9.490;2023-01-15T08:21:13;95880;;;8.1;59.5
68628;BME280;55611;48.602;9.490;2023-01-15T08:23:40;95890;;;8.2;59
68628;BME280;55611;48.602;9.490;2023-01-15T08:26:10;95880;;;8.2;59
68628;BME280;55611;48.602;9.490;2023-01-15T08:28:40;95890;;;8.2;59
68628;BME280;55611;48.602;9.490;2023-01-15T08:31:11;95890;;;8.2;59
68628;BME280;55611;48.602;9.490;2023-01-15T08:33:41;95890;;;8.2;59
68628;BME280;55611;48.602;9.490;2023-01-15T08:36:12;95890;;;8.2;59
68628;BME280;55611;48.602;9.490;2023-01-15T08:38:43;95910;;;8.3;59
68628;BME280;55611;48.602;9.490;2023-01-15T08:41:13;95900;;;8.4;59
68628;BME280;55611;48.602;9.490;2023-01-15T08:43:44;95910;;;8.4;59
68628;BME280;55611;48.602;9.490;2023-01-15T08:46:14;95930;;;8.3;59
68628;BME280;55611;48.602;9.490;2023-01-15T08:48:45;95930;;;8.3;59
68628;BME280;55611;48.602;9.490;2023-01-15T08:51:15;95940;;;8.3;59
68628;BME280;55611;48.602;9.490;2023-01-15T08:53:46;95930;;;8.4;59
68628;BME280;55611;48.602;9.490;2023-01-15T08:56:17;95940;;;8.4;59
68628;BME280;55611;48.602;9.490;2023-01-15T08:58:47;95940;;;8.4;59
68628;BME280;55611;48.602;9.490;2023-01-15T09:01:17;95940;;;8.3;59
68628;BME280;55611;48.602;9.490;2023-01-15T09:03:48;95960;;;8.3;59
68628;BME280;55611;48.602;9.490;2023-01-15T09:06:18;95950;;;8.4;59
68628;BME280;55611;48.602;9.490;2023-01-15T09:08:49;95950;;;8.4;59.5
68628;BME280;55611;48.602;9.490;2023-01-15T09:11:19;95960;;;8.4;59.5
68628;BME280;55611;48.602;9.490;2023-01-15T09:13:50;95960;;;8.3;59.5
68628;BME280;55611;48.602;9.490;2023-01-15T09:16:20;95960;;;8.4;59.5
68628;BME280;55611;48.602;9.490;2023-01-15T09:18:51;95960;;;8.3;59.5
68628;BME280;55611;48.602;9.490;2023-01-15T09:21:21;95950;;;8.5;59.5
68628;BME280;55611;48.602;9.490;2023-01-15T09:23:52;95950;;;8.6;59.5
68628;BME280;55611;48.602;9.490;2023-01-15T09:26:25;95960;;;8.5;59.5
68628;BME280;55611;48.602;9.490;2023-01-15T09:28:53;95970;;;8.5;59.5
68628;BME280;55611;48.602;9.490;2023-01-15T09:31:23;95980;;;8.5;59.5
68628;BME280;55611;48.602;9.490;2023-01-15T09:33:54;95990;;;8.2;59.5
68628;BME280;55611;48.602;9.490;2023-01-15T09:36:27;95990;;;7.9;59.5
68628;BME280;55611;48.602;9.490;2023-01-15T09:38:55;96000;;;7.9;60
68628;BME280;55611;48.602;9.490;2023-01-15T09:41:28;96010;;;7.9;60
68628;BME280;55611;48.602;9.490;2023-01-15T09:44:14;96020;;;7.9;60
68628;BME280;55611;48.602;9.490;2023-01-15T09:46:33;96020;;;8;59.5
68628;BME280;55611;48.602;9.490;2023-01-15T09:49:01;96010;;;8;59.5
68628;BME280;55611;48.602;9.490;2023-01-15T09:51:47;96010;;;8.1;59.5
68628;BME280;55611;48.602;9.490;2023-01-15T09:54:16;96000;;;8.1;59.5
68628;BME280;55611;48.602;9.490;2023-01-15T09:56:29;96010;;;8.2;59.5
68628;BME280;55611;48.602;9.490;2023-01-15T09:59:00;96000;;;8.2;59.5
68628;BME280;55611;48.602;9.490;2023-01-15T10:01:30;95990;;;8;60
68628;BME280;55611;48.602;9.490;2023-01-15T10:04:02;95990;;;8.1;60
68628;BME280;55611;48.602;9.490;2023-01-15T10:06:32;96000;;;8.1;60
68628;BME280;55611;48.602;9.490;2023-01-15T10:09:03;95980;;;8.2;59.5
68628;BME280;55611;48.602;9.490;2023-01-15T10:11:34;96000;;;8.2;59.5
68628;BME280;55611;48.602;9.490;2023-01-15T10:14:05;96000;;;8.1;59.5
68628;BME280;55611;48.602;9.490;2023-01-15T10:16:33;96000;;;8.2;59.5
68628;BME280;55611;48.602;9.490;2023-01-15T10:19:03;96000;;;8.3;59.5
68628;BME280;55611;48.602;9.490;2023-01-15T10:22:06;96020;;;8.5;59
68628;BME280;55611;48.602;9.490;2023-01-15T10:24:05;96010;;;8.5;59
68628;BME280;55611;48.602;9.490;2023-01-15T10:26:36;96010;;;8.5;59
68628;BME280;55611;48.602;9.490;2023-01-15T10:29:10;96020;;;8.5;59
68628;BME280;55611;48.602;9.490;2023-01-15T10:36:38;96040;;;8.6;59
68628;BME280;55611;48.602;9.490;2023-01-15T10:39:13;96050;;;8.5;59
68628;BME280;55611;48.602;9.490;2023-01-15T10:41:42;96050;;;8.5;59
68628;BME280;55611;48.602;9.490;2023-01-15T10:44:11;96050;;;8.4;59
68628;BME280;55611;48.602;9.490;2023-01-15T10:46:39;96050;;;8.4;59
68628;BME280;55611;48.602;9.490;2023-01-15T10:49:13;96050;;;8.4;59
68628;BME280;55611;48.602;9.490;2023-01-15T10:51:49;96050;;;8.4;59
68628;BME280;55611;48.602;9.490;2023-01-15T10:54:20;96050;;;8.4;59
68628;BME280;55611;48.602;9.490;2023-01-15T10:56:43;96050;;;8.4;59
68628;BME280;55611;48.602;9.490;2023-01-15T10:59:16;96050;;;8.3;59
68628;BME280;55611;48.602;9.490;2023-01-15T11:01:42;96040;;;8.3;59.5
68628;BME280;55611;48.602;9.490;2023-01-15T11:06:43;96040;;;8.2;59.5
68628;BME280;55611;48.602;9.490;2023-01-15T11:09:17;96050;;;8.1;59.5
68628;BME280;55611;48.602;9.490;2023-01-15T11:11:48;96060;;;8.1;59.5
68628;BME280;55611;48.602;9.490;2023-01-15T11:14:14;96060;;;8.1;59.5
68628;BME280;55611;48.602;9.490;2023-01-15T11:16:45;96070;;;8.1;59.5
68628;BME280;55611;48.602;9.490;2023-01-15T11:19:22;96070;;;8;59.5
68628;BME280;55611;48.602;9.490;2023-01-15T11:21:46;96070;;;7.9;59.5
68628;BME280;55611;48.602;9.490;2023-01-15T11:24:17;96070;;;7.8;59.5
68628;BME280;55611;48.602;9.490;2023-01-15T11:26:47;96090;;;7.8;59.5
68628;BME280;55611;48.602;9.490;2023-01-15T11:29:20;96090;;;7.8;59.5
68628;BME280;55611;48.602;9.490;2023-01-15T11:31:48;96090;;;7.8;59.5
68628;BME280;55611;48.602;9.490;2023-01-15T11:34:19;96090;;;7.8;59.5
68628;BME280;55611;48.602;9.490;2023-01-15T11:37:04;96090;;;7.8;59.5
68628;BME280;55611;48.602;9.490;2023-01-15T11:39:23;96100;;;7.8;59.5
68628;BME280;55611;48.602;9.490;2023-01-15T11:41:56;96100;;;7.8;59.5
68628;BME280;55611;48.602;9.490;2023-01-15T11:44:21;96110;;;7.8;59.5
68628;BME280;55611;48.602;9.490;2023-01-15T11:46:53;96110;;;7.8;59.5
68628;BME280;55611;48.602;9.490;2023-01-15T11:49:22;96130;;;7.6;60
68628;BME280;55611;48.602;9.490;2023-01-15T11:51:52;96140;;;7.5;60
68628;BME280;55611;48.602;9.490;2023-01-15T11:54:23;96140;;;7.3;60
68628;BME280;55611;48.602;9.490;2023-01-15T11:56:53;96160;;;7.1;60.5
68628;BME280;55611;48.602;9.490;2023-01-15T11:59:24;96160;;;6.8;60.5
68628;BME280;55611;48.602;9.490;2023-01-15T12:01:57;96170;;;6.3;60.5
68628;BME280;55611;48.602;9.490;2023-01-15T12:04:28;96180;;;6.2;60.5
68628;BME280;55611;48.602;9.490;2023-01-15T12:06:55;96170;;;6.1;60.5
68628;BME280;55611;48.602;9.490;2023-01-15T12:09:30;96180;;;6.1;60.5
68628;BME280;55611;48.602;9.490;2023-01-15T12:11:59;96190;;;6.1;60.5
68628;BME280;55611;48.602;9.490;2023-01-15T12:14:33;96180;;;6.2;60
68628;BME280;55611;48.602;9.490;2023-01-15T12:17:44;96190;;;6.2;60
68628;BME280;55611;48.602;9.490;2023-01-15T12:19:31;96190;;;6.2;60
68628;BME280;55611;48.602;9.490;2023-01-15T12:22:03;96200;;;6.3;60
68628;BME280;55611;48.602;9.490;2023-01-15T12:24:34;96200;;;6.4;60
68628;BME280;55611;48.602;9.490;2023-01-15T12:27:18;96200;;;6.4;60
68628;BME280;55611;48.602;9.490;2023-01-15T12:29:31;96200;;;6.5;60
68628;BME280;55611;48.602;9.490;2023-01-15T12:32:02;96210;;;6.6;59.5
68628;BME280;55611;48.602;9.490;2023-01-15T12:34:41;96210;;;6.6;59.5
68628;BME280;55611;48.602;9.490;2023-01-15T12:37:03;96210;;;6.7;59.5
68628;BME280;55611;48.602;9.490;2023-01-15T12:39:35;96220;;;6.7;59.5
68628;BME280;55611;48.602;9.490;2023-01-15T12:42:04;96210;;;6.7;59.5
68628;BME280;55611;48.602;9.490;2023-01-15T12:44:50;96210;;;6.8;59.5
68628;BME280;55611;48.602;9.490;2023-01-15T12:47:04;96210;;;7;59.5
68628;BME280;55611;48.602;9.490;2023-01-15T12:49:35;96210;;;7;59.5
68628;BME280;55611;48.602;9.490;2023-01-15T12:52:07;96210;;;7;59.5
68628;BME280;55611;48.602;9.490;2023-01-15T12:54:39;96210;;;7.1;59.5
68628;BME280;55611;48.602;9.490;2023-01-15T12:57:23;96210;;;7.1;60
68628;BME280;55611;48.602;9.490;2023-01-15T12:59:38;96200;;;7.1;60
68628;BME280;55611;48.602;9.490;2023-01-15T13:02:12;96210;;;7.2;60
68628;BME280;55611;48.602;9.490;2023-01-15T13:04:41;96210;;;7.3;60
68628;BME280;55611;48.602;9.490;2023-01-15T13:07:15;96200;;;7.3;60
68628;BME280;55611;48.602;9.490;2023-01-15T13:09:40;96220;;;7.3;60
68628;BME280;55611;48.602;9.490;2023-01-15T13:12:10;96190;;;7.1;60
68628;BME280;55611;48.602;9.490;2023-01-15T13:14:40;96200;;;7.1;60
68628;BME280;55611;48.602;9.490;2023-01-15T13:17:47;96220;;;7.1;60
68628;BME280;55611;48.602;9.490;2023-01-15T13:19:44;96220;;;7.2;60
68628;BME280;55611;48.602;9.490;2023-01-15T13:22:13;96240;;;7.2;60
68628;BME280;55611;48.602;9.490;2023-01-15T13:25:19;96230;;;7.2;60
68628;BME280;55611;48.602;9.490;2023-01-15T13:27:15;96220;;;7.3;60
68628;BME280;55611;48.602;9.490;2023-01-15T13:29:46;96220;;;7.2;60
68628;BME280;55611;48.602;9.490;2023-01-15T13:32:14;96230;;;7.2;60
68628;BME280;55611;48.602;9.490;2023-01-15T13:34:45;96230;;;7.3;60
68628;BME280;55611;48.602;9.490;2023-01-15T13:37:18;96230;;;7.3;60
68628;BME280;55611;48.602;9.490;2023-01-15T13:39:44;96240;;;7.3;60
68628;BME280;55611;48.602;9.490;2023-01-15T13:42:16;96240;;;7.5;60
68628;BME280;55611;48.602;9.490;2023-01-15T13:44:46;96250;;;7.5;60
68628;BME280;55611;48.602;9.490;2023-01-15T13:47:20;96220;;;7.5;60
68628;BME280;55611;48.602;9.490;2023-01-15T13:49:47;96250;;;7.7;60
68628;BME280;55611;48.602;9.490;2023-01-15T13:52:21;96240;;;7.8;60
68628;BME280;55611;48.602;9.490;2023-01-15T13:57:20;96240;;;7.9;59.5
68628;BME280;55611;48.602;9.490;2023-01-15T13:59:48;96240;;;7.9;60
68628;BME280;55611;48.602;9.490;2023-01-15T14:02:22;96250;;;7.9;60
68628;BME280;55611;48.602;9.490;2023-01-15T14:04:50;96250;;;7.8;60
68628;BME280;55611;48.602;9.490;2023-01-15T14:07:36;96250;;;7.8;60
68628;BME280;55611;48.602;9.490;2023-01-15T14:09:50;96230;;;7.9;60
68628;BME280;55611;48.602;9.490;2023-01-15T14:12:31;96250;;;8;60
68628;BME280;55611;48.602;9.490;2023-01-15T14:14:55;96220;;;8;60
68628;BME280;55611;48.602;9.490;2023-01-15T14:17:28;96230;;;7.9;60
68628;BME280;55611;48.602;9.490;2023-01-15T14:19:57;96230;;;8;60
68628;BME280;55611;48.602;9.490;2023-01-15T14:22:31;96250;;;8;60
68628;BME280;55611;48.602;9.490;2023-01-15T14:24:58;96230;;;7.9;60
68628;BME280;55611;48.602;9.490;2023-01-15T14:27:42;96250;;;8;60
68628;BME280;55611;48.602;9.490;2023-01-15T14:30:04;96220;;;8.2;60
68628;BME280;55611;48.602;9.490;2023-01-15T14:32:59;96230;;;8.2;59.5
68628;BME280;55611;48.602;9.490;2023-01-15T14:34:57;96240;;;8.2;59.5
68628;BME280;55611;48.602;9.490;2023-01-15T14:37:28;96230;;;8;60
68628;BME280;55611;48.602;9.490;2023-01-15T14:39:58;96230;;;8;60
68628;BME280;55611;48.602;9.490;2023-01-15T14:42:28;96260;;;7.9;59.5
68628;BME280;55611;48.602;9.490;2023-01-15T14:45:00;96280;;;7.8;59.5
68628;BME280;55611;48.602;9.490;2023-01-15T14:47:30;96250;;;7.9;60
68628;BME280;55611;48.602;9.490;2023-01-15T14:50:01;96240;;;7.8;60
68628;BME280;55611;48.602;9.490;2023-01-15T14:52:29;96250;;;7.8;60
68628;BME280;55611;48.602;9.490;2023-01-15T14:55:00;96260;;;7.9;60
68628;BME280;55611;48.602;9.490;2023-01-15T14:57:30;96270;;;7.8;60
68628;BME280;55611;48.602;9.490;2023-01-15T15:00:01;96250;;;7.8;60
68628;BME280;55611;48.602;9.490;2023-01-15T15:02:35;96290;;;7.9;60
68628;BME280;55611;48.602;9.490;2023-01-15T15:05:02;96250;;;7.9;60
68628;BME280;55611;48.602;9.490;2023-01-15T15:07:35;96260;;;8;60
68628;BME280;55611;48.602;9.490;2023-01-15T15:10:06;96260;;;8;60
68628;BME280;55611;48.602;9.490;2023-01-15T15:12:37;96280;;;7.9;60